sensor_id;sensor_type;location;lat;lon;timestamp;pressure;altitude;pressure_sealevel;temperature;humidity
51249;BME280;39642;47.556;18.728;2023-04-01T00:00:57;98219.19;;;20.48;40.58
51249;BME280;39642;47.556;18.728;2023-04-01T00:03:24;98220.16;;;20.47;40.58
51249;BME280;39642;47.556;18.728;2023-04-01T00:05:51;98212.22;;;20.47;40.57
51249;BME280;39642;47.556;18.728;2023-04-01T00:08:17;98222.81;;;20.47;40.57
51249;BME280;39642;47.556;18.728;2023-04-01T00:10:43;98222.81;;;20.47;40.56
51249;BME280;39642;47.556;18.728;2023-04-01T00:13:09;98222.81;;;20.47;40.54
51249;BME280;39642;47.556;18.728;2023-04-01T00:15:35;98216.66;;;20.46;40.52
51249;BME280;39642;47.556;18.728;2023-04-01T00:18:01;98217.53;;;20.47;40.51
51249;BME280;39642;47.556;18.728;2023-04-01T00:20:27;98221.12;;;20.46;40.50
51249;BME280;39642;47.556;18.728;2023-04-01T00:22:53;98223.75;;;20.46;40.50
51249;BME280;39642;47.556;18.728;2023-04-01T00:25:19;98225.56;;;20.45;40.48
51249;BME280;39642;47.556;18.728;2023-04-01T00:27:45;98227.38;;;20.45;40.45
51249;BME280;39642;47.556;18.728;2023-04-01T00:30:11;98218.47;;;20.46;40.44
51249;BME280;39642;47.556;18.728;2023-04-01T00:32:37;98223.75;;;20.46;40.44
51249;BME280;39642;47.556;18.728;2023-04-01T00:35:03;98216.81;;;20.45;40.43
51249;BME280;39642;47.556;18.728;2023-04-01T00:37:30;98209.72;;;20.45;40.43
51249;BME280;39642;47.556;18.728;2023-04-01T00:39:56;98215.81;;;20.46;40.43
51249;BME280;39642;47.556;18.728;2023-04-01T00:42:22;98203.59;;;20.45;40.42
51249;BME280;39642;47.556;18.728;2023-04-01T00:44:53;98209.72;;;20.45;40.41
51249;BME280;39642;47.556;18.728;2023-04-01T00:47:21;98215.00;;;20.45;40.41
51249;BME280;39642;47.556;18.728;2023-04-01T00:49:50;98215.00;;;20.45;40.40
51249;BME280;39642;47.556;18.728;2023-04-01T00:52:22;98214.16;;;20.45;40.38
51249;BME280;39642;47.556;18.728;2023-04-01T00:54:51;98212.47;;;20.44;40.38
51249;BME280;39642;47.556;18.728;2023-04-01T00:57:26;98215.81;;;20.46;40.36
51249;BME280;39642;47.556;18.728;2023-04-01T00:59:54;98208.88;;;20.45;40.35
51249;BME280;39642;47.556;18.728;2023-04-01T01:02:21;98216.81;;;20.45;40.36
51249;BME280;39642;47.556;18.728;2023-04-01T01:04:47;98219.44;;;20.45;40.34
51249;BME280;39642;47.556;18.728;2023-04-01T01:07:32;98217.63;;;20.45;40.34
51249;BME280;39642;47.556;18.728;2023-04-01T01:15:32;98214.16;;;20.45;40.30
51249;BME280;39642;47.556;18.728;2023-04-01T01:34:22;98213.44;;;20.43;40.23
51249;BME280;39642;47.556;18.728;2023-04-01T01:36:58;98215.94;;;20.44;40.22
51249;BME280;39642;47.556;18.728;2023-04-01T01:39:30;98209.81;;;20.44;40.21
51249;BME280;39642;47.556;18.728;2023-04-01T01:41:59;98209.81;;;20.44;40.20
51249;BME280;39642;47.556;18.728;2023-04-01T01:44:28;98208.88;;;20.45;40.18
51249;BME280;39642;47.556;18.728;2023-04-01T01:46:56;98207.19;;;20.44;40.16
51249;BME280;39642;47.556;18.728;2023-04-01T01:49:23;98204.53;;;20.44;40.15
51249;BME280;39642;47.556;18.728;2023-04-01T01:51:50;98208.16;;;20.43;40.13
51249;BME280;39642;47.556;18.728;2023-04-01T01:54:17;98208.16;;;20.43;40.11
51249;BME280;39642;47.556;18.728;2023-04-01T01:56:46;98206.34;;;20.43;40.09
51249;BME280;39642;47.556;18.728;2023-04-01T01:59:14;98194.94;;;20.43;40.08
51249;BME280;39642;47.556;18.728;2023-04-01T02:01:44;98189.66;;;20.43;40.07
51249;BME280;39642;47.556;18.728;2023-04-01T02:04:13;98194.94;;;20.43;40.07
51249;BME280;39642;47.556;18.728;2023-04-01T02:06:44;98202.00;;;20.42;40.05
51249;BME280;39642;47.556;18.728;2023-04-01T02:09:12;98198.53;;;20.42;40.06
51249;BME280;39642;47.556;18.728;2023-04-01T02:11:57;98194.94;;;20.43;40.04
51249;BME280;39642;47.556;18.728;2023-04-01T02:14:25;98197.59;;;20.43;40.02
51249;BME280;39642;47.556;18.728;2023-04-01T02:16:57;98194.94;;;20.43;40.01
51249;BME280;39642;47.556;18.728;2023-04-01T02:19:27;98189.66;;;20.43;39.98
51249;BME280;39642;47.556;18.728;2023-04-01T02:21:57;98192.28;;;20.43;39.97
51249;BME280;39642;47.556;18.728;2023-04-01T02:24:26;98181.72;;;20.43;39.96
51249;BME280;39642;47.556;18.728;2023-04-01T02:26:53;98187.00;;;20.43;39.94
51249;BME280;39642;47.556;18.728;2023-04-01T02:29:21;98183.50;;;20.42;39.93
51249;BME280;39642;47.556;18.728;2023-04-01T02:31:50;98187.84;;;20.43;39.91
51249;BME280;39642;47.556;18.728;2023-04-01T02:34:16;98182.56;;;20.43;39.90
51249;BME280;39642;47.556;18.728;2023-04-01T02:36:42;98175.56;;;20.42;39.89
51249;BME280;39642;47.556;18.728;2023-04-01T02:39:08;98176.44;;;20.43;39.87
51249;BME280;39642;47.556;18.728;2023-04-01T02:41:42;98174.63;;;20.43;39.84
51249;BME280;39642;47.556;18.728;2023-04-01T02:44:08;98173.78;;;20.43;39.83
51249;BME280;39642;47.556;18.728;2023-04-01T02:46:35;98174.63;;;20.43;39.82
51249;BME280;39642;47.556;18.728;2023-04-01T02:49:01;98176.44;;;20.43;39.79
51249;BME280;39642;47.556;18.728;2023-04-01T02:51:27;98180.75;;;20.44;39.79
51249;BME280;39642;47.556;18.728;2023-04-01T02:53:53;98177.28;;;20.43;39.78
51249;BME280;39642;47.556;18.728;2023-04-01T02:56:19;98163.22;;;20.43;39.78
51249;BME280;39642;47.556;18.728;2023-04-01T02:58:46;98162.34;;;20.42;39.76
51249;BME280;39642;47.556;18.728;2023-04-01T03:01:11;98164.06;;;20.43;39.75
51249;BME280;39642;47.556;18.728;2023-04-01T03:03:38;98163.22;;;20.43;39.75
51249;BME280;39642;47.556;18.728;2023-04-01T03:06:09;98165.88;;;20.43;39.74
51249;BME280;39642;47.556;18.728;2023-04-01T03:08:35;98159.72;;;20.42;39.72
51249;BME280;39642;47.556;18.728;2023-04-01T03:11:01;98154.44;;;20.42;39.71
51249;BME280;39642;47.556;18.728;2023-04-01T03:13:28;98156.25;;;20.42;39.69
51249;BME280;39642;47.556;18.728;2023-04-01T03:15:53;98167.66;;;20.42;39.69
51249;BME280;39642;47.556;18.728;2023-04-01T03:18:19;98173.78;;;20.43;39.68
51249;BME280;39642;47.556;18.728;2023-04-01T03:20:45;98176.56;;;20.41;39.65
51249;BME280;39642;47.556;18.728;2023-04-01T03:23:12;98171.28;;;20.41;39.64
51249;BME280;39642;47.556;18.728;2023-04-01T03:25:38;98177.38;;;20.42;39.63
51249;BME280;39642;47.556;18.728;2023-04-01T03:28:04;98183.66;;;20.41;39.63
51249;BME280;39642;47.556;18.728;2023-04-01T03:30:30;98191.59;;;20.41;39.62
51249;BME280;39642;47.556;18.728;2023-04-01T03:32:57;98191.59;;;20.41;39.61
51249;BME280;39642;47.556;18.728;2023-04-01T03:35:24;98187.13;;;20.41;39.60
51249;BME280;39642;47.556;18.728;2023-04-01T03:37:50;98195.06;;;20.41;39.58
51249;BME280;39642;47.556;18.728;2023-04-01T03:40:17;98192.41;;;20.41;39.57
51249;BME280;39642;47.556;18.728;2023-04-01T03:42:43;98196.03;;;20.40;39.54
51249;BME280;39642;47.556;18.728;2023-04-01T03:45:09;98191.59;;;20.41;39.53
51249;BME280;39642;47.556;18.728;2023-04-01T03:47:35;98189.88;;;20.39;39.50
51249;BME280;39642;47.556;18.728;2023-04-01T03:50:02;98193.41;;;20.40;39.49
51249;BME280;39642;47.556;18.728;2023-04-01T03:52:28;98190.75;;;20.40;39.48
51249;BME280;39642;47.556;18.728;2023-04-01T03:54:55;98191.69;;;20.39;39.47
51249;BME280;39642;47.556;18.728;2023-04-01T03:57:21;98189.06;;;20.39;39.44
51249;BME280;39642;47.556;18.728;2023-04-01T03:59:47;98194.34;;;20.39;39.43
51249;BME280;39642;47.556;18.728;2023-04-01T04:02:12;98200.47;;;20.39;39.41
51249;BME280;39642;47.556;18.728;2023-04-01T04:04:38;98198.81;;;20.38;39.41
51249;BME280;39642;47.556;18.728;2023-04-01T04:07:04;98206.72;;;20.38;39.39
51249;BME280;39642;47.556;18.728;2023-04-01T04:09:31;98209.37;;;20.38;39.36
51249;BME280;39642;47.556;18.728;2023-04-01T04:11:57;98200.63;;;20.38;39.34
51249;BME280;39642;47.556;18.728;2023-04-01T04:14:23;98204.09;;;20.38;39.34
51249;BME280;39642;47.556;18.728;2023-04-01T04:16:49;98205.75;;;20.39;39.33
51249;BME280;39642;47.556;18.728;2023-04-01T04:19:15;98210.22;;;20.39;39.32
51249;BME280;39642;47.556;18.728;2023-04-01T04:21:41;98205.75;;;20.39;39.29
51249;BME280;39642;47.556;18.728;2023-04-01T04:24:08;98198.81;;;20.38;39.28
51249;BME280;39642;47.556;18.728;2023-04-01T04:26:34;98211.03;;;20.39;39.26
51249;BME280;39642;47.556;18.728;2023-04-01T04:29:00;98209.37;;;20.38;39.25
51249;BME280;39642;47.556;18.728;2023-04-01T04:31:27;98204.09;;;20.38;39.22
51249;BME280;39642;47.556;18.728;2023-04-01T04:33:53;98205.75;;;20.39;39.20
51249;BME280;39642;47.556;18.728;2023-04-01T04:36:20;98209.37;;;20.38;39.19
51249;BME280;39642;47.556;18.728;2023-04-01T04:38:46;98205.75;;;20.39;39.18
51249;BME280;39642;47.556;18.728;2023-04-01T04:41:14;98207.44;;;20.41;39.17
51249;BME280;39642;47.556;18.728;2023-04-01T04:43:41;98209.25;;;20.40;39.16
51249;BME280;39642;47.556;18.728;2023-04-01T04:46:08;98212.72;;;20.41;39.15
51249;BME280;39642;47.556;18.728;2023-04-01T04:48:35;98209.09;;;20.42;39.13
51249;BME280;39642;47.556;18.728;2023-04-01T04:51:02;98205.75;;;20.39;39.11
51249;BME280;39642;47.556;18.728;2023-04-01T04:53:28;98204.81;;;20.41;39.10
51249;BME280;39642;47.556;18.728;2023-04-01T04:55:54;98210.09;;;20.41;39.09
51249;BME280;39642;47.556;18.728;2023-04-01T04:58:20;98206.62;;;20.40;39.05
51249;BME280;39642;47.556;18.728;2023-04-01T05:00:47;98219.69;;;20.42;39.05
51249;BME280;39642;47.556;18.728;2023-04-01T05:03:13;98214.41;;;20.42;39.03
51249;BME280;39642;47.556;18.728;2023-04-01T05:05:39;98214.41;;;20.42;39.02
51249;BME280;39642;47.556;18.728;2023-04-01T05:08:06;98217.03;;;20.42;39.01
51249;BME280;39642;47.556;18.728;2023-04-01T05:10:32;98217.87;;;20.42;39.00
51249;BME280;39642;47.556;18.728;2023-04-01T05:12:58;98224.03;;;20.43;38.97
51249;BME280;39642;47.556;18.728;2023-04-01T05:15:24;98221.22;;;20.44;38.95
51249;BME280;39642;47.556;18.728;2023-04-01T05:17:50;98223.03;;;20.44;38.95
51249;BME280;39642;47.556;18.728;2023-04-01T05:20:16;98222.22;;;20.43;38.96
51249;BME280;39642;47.556;18.728;2023-04-01T05:22:42;98217.75;;;20.44;38.94
51249;BME280;39642;47.556;18.728;2023-04-01T05:25:09;98218.75;;;20.43;38.94
51249;BME280;39642;47.556;18.728;2023-04-01T05:27:35;98216.91;;;20.43;38.93
51249;BME280;39642;47.556;18.728;2023-04-01T05:30:01;98225.69;;;20.44;38.92
51249;BME280;39642;47.556;18.728;2023-04-01T05:32:26;98217.75;;;20.44;38.89
51249;BME280;39642;47.556;18.728;2023-04-01T05:34:53;98225.69;;;20.44;38.88
51249;BME280;39642;47.556;18.728;2023-04-01T05:37:19;98231.81;;;20.44;38.87
51249;BME280;39642;47.556;18.728;2023-04-01T05:39:45;98234.44;;;20.44;38.85
51249;BME280;39642;47.556;18.728;2023-04-01T05:42:11;98234.44;;;20.44;38.83
51249;BME280;39642;47.556;18.728;2023-04-01T05:44:37;98231.81;;;20.44;38.81
51249;BME280;39642;47.556;18.728;2023-04-01T05:47:04;98236.16;;;20.45;38.80
51249;BME280;39642;47.556;18.728;2023-04-01T05:49:30;98232.66;;;20.45;38.79
51249;BME280;39642;47.556;18.728;2023-04-01T05:51:56;98239.75;;;20.44;38.79
51249;BME280;39642;47.556;18.728;2023-04-01T05:54:22;98245.03;;;20.44;38.78
51249;BME280;39642;47.556;18.728;2023-04-01T05:56:48;98235.31;;;20.45;38.77
51249;BME280;39642;47.556;18.728;2023-04-01T05:59:14;98243.25;;;20.45;38.74
51249;BME280;39642;47.556;18.728;2023-04-01T06:01:40;98229.03;;;20.46;38.75
51249;BME280;39642;47.556;18.728;2023-04-01T06:04:06;98229.03;;;20.46;38.71
51249;BME280;39642;47.556;18.728;2023-04-01T06:06:35;98221.94;;;20.46;38.71
51249;BME280;39642;47.556;18.728;2023-04-01T06:09:12;98221.94;;;20.46;38.71
51249;BME280;39642;47.556;18.728;2023-04-01T06:11:48;98218.34;;;20.47;38.69
51249;BME280;39642;47.556;18.728;2023-04-01T06:17:43;98220.84;;;20.49;38.66
51249;BME280;39642;47.556;18.728;2023-04-01T06:28:47;98223.38;;;20.50;38.62
51249;BME280;39642;47.556;18.728;2023-04-01T06:48:16;98226.72;;;20.52;38.55
51249;BME280;39642;47.556;18.728;2023-04-01T06:51:08;98241.63;;;20.53;38.56
51249;BME280;39642;47.556;18.728;2023-04-01T06:53:57;98232.03;;;20.52;38.57
51249;BME280;39642;47.556;18.728;2023-04-01T06:56:28;98232.84;;;20.53;38.57
51249;BME280;39642;47.556;18.728;2023-04-01T06:59:02;98244.25;;;20.53;38.57
51249;BME280;39642;47.556;18.728;2023-04-01T07:01:37;98240.66;;;20.54;38.56
51249;BME280;39642;47.556;18.728;2023-04-01T07:04:10;98238.03;;;20.54;38.55
51249;BME280;39642;47.556;18.728;2023-04-01T07:06:44;98238.84;;;20.55;38.52
51249;BME280;39642;47.556;18.728;2023-04-01T07:09:15;98239.69;;;20.55;38.52
51249;BME280;39642;47.556;18.728;2023-04-01T07:11:42;98240.56;;;20.56;38.51
51249;BME280;39642;47.556;18.728;2023-04-01T07:14:25;98250.19;;;20.57;38.50
51249;BME280;39642;47.556;18.728;2023-04-01T07:16:58;98244.06;;;20.56;38.52
51249;BME280;39642;47.556;18.728;2023-04-01T07:19:42;98240.56;;;20.56;38.52
51249;BME280;39642;47.556;18.728;2023-04-01T07:24:46;98239.59;;;20.57;38.52
51249;BME280;39642;47.556;18.728;2023-04-01T07:27:14;98231.66;;;20.57;38.52
51249;BME280;39642;47.556;18.728;2023-04-01T07:29:40;98239.59;;;20.57;38.52
51249;BME280;39642;47.556;18.728;2023-04-01T07:40:15;98241.28;;;20.58;38.55
51249;BME280;39642;47.556;18.728;2023-04-01T07:43:25;98241.28;;;20.58;38.55
51249;BME280;39642;47.556;18.728;2023-04-01T07:54:36;98257.00;;;20.59;38.57
51249;BME280;39642;47.556;18.728;2023-04-01T07:57:57;98257.16;;;20.58;38.58
51249;BME280;39642;47.556;18.728;2023-04-01T08:05:25;98249.34;;;20.56;38.65
51249;BME280;39642;47.556;18.728;2023-04-01T08:08:19;98252.81;;;20.57;38.66
51249;BME280;39642;47.556;18.728;2023-04-01T08:13:43;98257.28;;;20.56;38.69
51249;BME280;39642;47.556;18.728;2023-04-01T08:17:19;98258.09;;;20.57;38.69
51249;BME280;39642;47.556;18.728;2023-04-01T08:21:58;98252.81;;;20.57;38.70
51249;BME280;39642;47.556;18.728;2023-04-01T08:24:45;98260.75;;;20.57;38.67
51249;BME280;39642;47.556;18.728;2023-04-01T08:27:26;98256.28;;;20.57;38.66
51249;BME280;39642;47.556;18.728;2023-04-01T08:30:09;98259.81;;;20.58;38.69
51249;BME280;39642;47.556;18.728;2023-04-01T08:32:46;98257.16;;;20.58;38.72
51249;BME280;39642;47.556;18.728;2023-04-01T08:35:31;98261.47;;;20.59;38.75
51249;BME280;39642;47.556;18.728;2023-04-01T08:38:17;98260.50;;;20.60;38.74
51249;BME280;39642;47.556;18.728;2023-04-01T08:46:56;98255.78;;;20.64;39.02
51249;BME280;39642;47.556;18.728;2023-04-01T08:52:33;98257.59;;;20.63;39.23
51249;BME280;39642;47.556;18.728;2023-04-01T09:00:27;98256.63;;;20.64;39.70
51249;BME280;39642;47.556;18.728;2023-04-01T09:03:23;98255.69;;;20.65;39.74
51249;BME280;39642;47.556;18.728;2023-04-01T09:19:22;98255.53;;;20.67;41.99
51249;BME280;39642;47.556;18.728;2023-04-01T09:25:28;98258.19;;;20.67;42.25
51249;BME280;39642;47.556;18.728;2023-04-01T09:28:02;98259.97;;;20.66;41.82
51249;BME280;39642;47.556;18.728;2023-04-01T09:30:46;98250.25;;;20.67;41.78
51249;BME280;39642;47.556;18.728;2023-04-01T09:33:47;98246.75;;;20.66;42.11
51249;BME280;39642;47.556;18.728;2023-04-01T09:44:34;98256.41;;;20.67;43.19
51249;BME280;39642;47.556;18.728;2023-04-01T09:53:11;98252.16;;;20.65;41.93
51249;BME280;39642;47.556;18.728;2023-04-01T10:04:47;98258.56;;;20.62;41.85
51249;BME280;39642;47.556;18.728;2023-04-01T10:07:39;98259.41;;;20.63;43.08
51249;BME280;39642;47.556;18.728;2023-04-01T10:32:48;98258.44;;;20.64;42.88
51249;BME280;39642;47.556;18.728;2023-04-01T10:46:07;98251.34;;;20.64;44.02
51249;BME280;39642;47.556;18.728;2023-04-01T10:57:41;98261.09;;;20.64;44.48
51249;BME280;39642;47.556;18.728;2023-04-01T11:00:38;98256.63;;;20.64;44.45
51249;BME280;39642;47.556;18.728;2023-04-01T11:09:40;98248.69;;;20.64;44.06
51249;BME280;39642;47.556;18.728;2023-04-01T11:15:17;98246.88;;;20.65;43.81
51249;BME280;39642;47.556;18.728;2023-04-01T11:39:29;98253.88;;;20.66;44.73
51249;BME280;39642;47.556;18.728;2023-04-01T11:45:12;98267.09;;;20.66;44.79
51249;BME280;39642;47.556;18.728;2023-04-01T11:47:58;98264.44;;;20.66;44.71
51249;BME280;39642;47.556;18.728;2023-04-01T11:53:27;98263.47;;;20.67;44.65
51249;BME280;39642;47.556;18.728;2023-04-01T11:59:18;98261.69;;;20.67;44.55
51249;BME280;39642;47.556;18.728;2023-04-01T12:14:54;98255.41;;;20.68;42.68
51249;BME280;39642;47.556;18.728;2023-04-01T12:18:03;98260.69;;;20.68;41.77
51249;BME280;39642;47.556;18.728;2023-04-01T12:20:45;98263.34;;;20.68;41.70
51249;BME280;39642;47.556;18.728;2023-04-01T12:31:22;98259.88;;;20.68;41.18
51249;BME280;39642;47.556;18.728;2023-04-01T12:34:15;98259.03;;;20.67;40.92
51249;BME280;39642;47.556;18.728;2023-04-01T12:39:48;98252.06;;;20.66;40.65
51249;BME280;39642;47.556;18.728;2023-04-01T12:42:42;98248.56;;;20.66;40.50
51249;BME280;39642;47.556;18.728;2023-04-01T12:45:27;98250.38;;;20.65;40.41
51249;BME280;39642;47.556;18.728;2023-04-01T12:59:42;98250.38;;;20.65;40.14
51249;BME280;39642;47.556;18.728;2023-04-01T13:07:46;98242.56;;;20.64;40.12
51249;BME280;39642;47.556;18.728;2023-04-01T13:13:01;98244.38;;;20.63;40.07
51249;BME280;39642;47.556;18.728;2023-04-01T13:15:41;98245.34;;;20.62;40.10
51249;BME280;39642;47.556;18.728;2023-04-01T13:26:38;98254.38;;;20.59;40.09
51249;BME280;39642;47.556;18.728;2023-04-01T13:29:21;98269.41;;;20.59;40.10
51249;BME280;39642;47.556;18.728;2023-04-01T13:31:59;98279.97;;;20.59;40.13
51249;BME280;39642;47.556;18.728;2023-04-01T13:45:24;98308.34;;;20.57;40.05
51249;BME280;39642;47.556;18.728;2023-04-01T13:56:15;98288.25;;;20.54;40.06
51249;BME280;39642;47.556;18.728;2023-04-01T14:10:17;98269.88;;;20.53;40.10
51249;BME280;39642;47.556;18.728;2023-04-01T14:13:20;98264.59;;;20.53;40.10
51249;BME280;39642;47.556;18.728;2023-04-01T14:16:11;98262.78;;;20.53;40.07
51249;BME280;39642;47.556;18.728;2023-04-01T14:21:27;98257.38;;;20.55;40.05
51249;BME280;39642;47.556;18.728;2023-04-01T14:26:57;98251.12;;;20.56;40.00
51249;BME280;39642;47.556;18.728;2023-04-01T14:32:28;98249.22;;;20.58;40.00
51249;BME280;39642;47.556;18.728;2023-04-01T14:35:25;98250.88;;;20.59;40.02
51249;BME280;39642;47.556;18.728;2023-04-01T14:41:00;98246.31;;;20.61;39.98
51249;BME280;39642;47.556;18.728;2023-04-01T14:43:52;98231.28;;;20.62;40.02
51249;BME280;39642;47.556;18.728;2023-04-01T14:49:36;98247.97;;;20.62;39.96
51249;BME280;39642;47.556;18.728;2023-04-01T14:52:31;98243.41;;;20.64;39.94
51249;BME280;39642;47.556;18.728;2023-04-01T14:55:00;98251.34;;;20.64;39.95
51249;BME280;39642;47.556;18.728;2023-04-01T14:57:28;98250.38;;;20.65;39.96
51249;BME280;39642;47.556;18.728;2023-04-01T15:00:09;98253.88;;;20.66;39.96
51249;BME280;39642;47.556;18.728;2023-04-01T15:02:53;98254.69;;;20.66;39.95
51249;BME280;39642;47.556;18.728;2023-04-01T15:08:29;98252.16;;;20.65;39.95
51249;BME280;39642;47.556;18.728;2023-04-01T15:11:11;98253.97;;;20.64;39.94
51249;BME280;39642;47.556;18.728;2023-04-01T15:14:01;98249.53;;;20.65;39.94
51249;BME280;39642;47.556;18.728;2023-04-01T15:17:11;98253.97;;;20.64;39.92
51249;BME280;39642;47.556;18.728;2023-04-01T15:23:11;98246.88;;;20.65;39.92
51249;BME280;39642;47.556;18.728;2023-04-01T15:30:47;98261.09;;;20.64;39.88
51249;BME280;39642;47.556;18.728;2023-04-01T15:38:48;98258.44;;;20.64;39.86
51249;BME280;39642;47.556;18.728;2023-04-01T15:41:20;98260.25;;;20.63;39.88
51249;BME280;39642;47.556;18.728;2023-04-01T15:43:50;98264.72;;;20.63;39.87
51249;BME280;39642;47.556;18.728;2023-04-01T15:49:19;98254.38;;;20.59;39.87
51249;BME280;39642;47.556;18.728;2023-04-01T16:00:22;98276.34;;;20.60;39.80
51249;BME280;39642;47.556;18.728;2023-04-01T16:11:28;98283.59;;;20.58;39.74
51249;BME280;39642;47.556;18.728;2023-04-01T16:14:20;98285.37;;;20.57;39.73
51249;BME280;39642;47.556;18.728;2023-04-01T16:17:12;98282.75;;;20.57;39.71
51249;BME280;39642;47.556;18.728;2023-04-01T16:19:49;98291.66;;;20.56;39.68
51249;BME280;39642;47.556;18.728;2023-04-01T16:22:22;98293.44;;;20.56;39.64
51249;BME280;39642;47.556;18.728;2023-04-01T16:24:59;98289.94;;;20.55;39.62
51249;BME280;39642;47.556;18.728;2023-04-01T16:30:38;98290.91;;;20.54;39.57
51249;BME280;39642;47.556;18.728;2023-04-01T16:33:36;98299.66;;;20.55;39.54
51249;BME280;39642;47.556;18.728;2023-04-01T16:45:07;98297.16;;;20.53;39.45
51249;BME280;39642;47.556;18.728;2023-04-01T16:47:47;98302.56;;;20.52;39.41
51249;BME280;39642;47.556;18.728;2023-04-01T16:50:29;98307.88;;;20.52;39.38
51249;BME280;39642;47.556;18.728;2023-04-01T16:55:51;98306.16;;;20.51;39.36
51249;BME280;39642;47.556;18.728;2023-04-01T16:58:37;98313.28;;;20.50;39.34
51249;BME280;39642;47.556;18.728;2023-04-01T17:01:09;98319.41;;;20.51;39.29
51249;BME280;39642;47.556;18.728;2023-04-01T17:03:43;98316.03;;;20.49;39.26
51249;BME280;39642;47.556;18.728;2023-04-01T17:06:22;98323.00;;;20.50;39.23
51249;BME280;39642;47.556;18.728;2023-04-01T17:11:55;98319.66;;;20.48;39.21
51249;BME280;39642;47.556;18.728;2023-04-01T17:14:41;98324.94;;;20.48;39.19
51249;BME280;39642;47.556;18.728;2023-04-01T17:17:20;98323.28;;;20.47;39.15
51249;BME280;39642;47.556;18.728;2023-04-01T17:23:11;98333.84;;;20.47;39.10
51249;BME280;39642;47.556;18.728;2023-04-01T17:39:54;98355.22;;;20.44;38.93
51249;BME280;39642;47.556;18.728;2023-04-01T17:42:40;98360.53;;;20.44;38.92
51249;BME280;39642;47.556;18.728;2023-04-01T17:45:18;98366.78;;;20.43;38.89
51249;BME280;39642;47.556;18.728;2023-04-01T17:53:41;98363.28;;;20.42;38.86
51249;BME280;39642;47.556;18.728;2023-04-01T17:56:17;98373.84;;;20.42;38.85
51249;BME280;39642;47.556;18.728;2023-04-01T17:58:55;98370.53;;;20.40;38.83
51249;BME280;39642;47.556;18.728;2023-04-01T18:01:40;98376.66;;;20.41;38.83
51249;BME280;39642;47.556;18.728;2023-04-01T18:04:12;98372.31;;;20.39;38.83
51249;BME280;39642;47.556;18.728;2023-04-01T18:14:42;98392.63;;;20.39;38.80
51249;BME280;39642;47.556;18.728;2023-04-01T18:22:45;98397.19;;;20.37;38.78
51249;BME280;39642;47.556;18.728;2023-04-01T18:28:27;98407.75;;;20.37;38.78
51249;BME280;39642;47.556;18.728;2023-04-01T18:38:52;98417.50;;;20.36;38.76
51249;BME280;39642;47.556;18.728;2023-04-01T18:41:26;98428.06;;;20.36;38.75
51249;BME280;39642;47.556;18.728;2023-04-01T18:51:56;98430.72;;;20.36;38.73
51249;BME280;39642;47.556;18.728;2023-04-01T18:57:02;98435.03;;;20.37;38.72
51249;BME280;39642;47.556;18.728;2023-04-01T19:00:06;98433.38;;;20.36;38.70
51249;BME280;39642;47.556;18.728;2023-04-01T19:02:52;98441.28;;;20.36;38.70
51249;BME280;39642;47.556;18.728;2023-04-01T19:05:37;98443.94;;;20.36;38.68
51249;BME280;39642;47.556;18.728;2023-04-01T19:08:32;98441.28;;;20.36;38.68
51249;BME280;39642;47.556;18.728;2023-04-01T19:16:15;98442.12;;;20.37;38.66
51249;BME280;39642;47.556;18.728;2023-04-01T19:22:03;98446.59;;;20.36;38.63
51249;BME280;39642;47.556;18.728;2023-04-01T19:27:23;98443.09;;;20.36;38.61
51249;BME280;39642;47.556;18.728;2023-04-01T19:35:55;98448.38;;;20.36;38.56
51249;BME280;39642;47.556;18.728;2023-04-01T19:38:31;98443.94;;;20.36;38.55
51249;BME280;39642;47.556;18.728;2023-04-01T19:41:13;98453.69;;;20.36;38.54
51249;BME280;39642;47.556;18.728;2023-04-01T19:44:04;98449.22;;;20.36;38.53
51249;BME280;39642;47.556;18.728;2023-04-01T19:46:43;98454.50;;;20.36;38.51
51249;BME280;39642;47.556;18.728;2023-04-01T19:52:27;98451.88;;;20.36;38.50
51249;BME280;39642;47.556;18.728;2023-04-01T19:55:03;98457.16;;;20.36;38.48
51249;BME280;39642;47.556;18.728;2023-04-01T20:00:12;98450.19;;;20.35;38.45
51249;BME280;39642;47.556;18.728;2023-04-01T20:02:58;98459.81;;;20.36;38.45
51249;BME280;39642;47.556;18.728;2023-04-01T20:05:40;98459.81;;;20.36;38.44
51249;BME280;39642;47.556;18.728;2023-04-01T20:08:33;98462.44;;;20.36;38.41
51249;BME280;39642;47.556;18.728;2023-04-01T20:11:10;98463.28;;;20.37;38.40
51249;BME280;39642;47.556;18.728;2023-04-01T20:17:01;98467.72;;;20.36;38.39
51249;BME280;39642;47.556;18.728;2023-04-01T20:19:41;98469.53;;;20.36;38.38
51249;BME280;39642;47.556;18.728;2023-04-01T20:24:59;98482.75;;;20.36;38.36
51249;BME280;39642;47.556;18.728;2023-04-01T20:27:33;98470.38;;;20.36;38.33
51249;BME280;39642;47.556;18.728;2023-04-01T20:44:02;98477.31;;;20.37;38.23
51249;BME280;39642;47.556;18.728;2023-04-01T20:49:20;98482.63;;;20.37;38.24
51249;BME280;39642;47.556;18.728;2023-04-01T20:54:31;98488.78;;;20.38;38.21
51249;BME280;39642;47.556;18.728;2023-04-01T20:57:06;98499.19;;;20.39;38.17
51249;BME280;39642;47.556;18.728;2023-04-01T21:05:04;98497.41;;;20.40;38.11
51249;BME280;39642;47.556;18.728;2023-04-01T21:07:34;98496.56;;;20.39;38.08
51249;BME280;39642;47.556;18.728;2023-04-01T21:16:46;98499.19;;;20.39;38.02
51249;BME280;39642;47.556;18.728;2023-04-01T21:40:25;98516.16;;;20.37;37.80
51249;BME280;39642;47.556;18.728;2023-04-01T21:46:17;98510.03;;;20.36;37.77
51249;BME280;39642;47.556;18.728;2023-04-01T21:49:05;98503.91;;;20.36;37.78
51249;BME280;39642;47.556;18.728;2023-04-01T21:52:28;98514.47;;;20.36;37.72
51249;BME280;39642;47.556;18.728;2023-04-01T22:00:33;98519.03;;;20.34;37.71
51249;BME280;39642;47.556;18.728;2023-04-01T22:08:41;98517.34;;;20.33;37.65